.
WxDataArchive / Data Records for 2006-05-09
2006-05-08 May 2006 2006-05-10

Data Records for Tuesday, 09 May 2006

Time	Temp	Chill	HIndex	Humid	Dewpt	 Wind 	HiWind	WindDir	Rain 	Barom 
-----	----	-----	------	-----	-----	------	------	-------	-----	----- 
00:00	51.1	51.1	51.1	78	44.5	0	0	---	0.00	29.909 
00:05	51.1	51.1	51.1	80	45.1	0	0	---	0.00	29.909 
00:10	51.0	51.0	51.0	79	44.7	0	0	---	0.00	29.909 
00:15	50.8	50.8	50.8	78	44.2	0	0	---	0.00	29.908 
00:20	50.7	50.7	50.7	79	44.4	0	0	---	0.00	29.908 
00:25	50.4	50.4	50.4	81	44.8	0	0	---	0.00	29.908 
00:30	50.2	50.2	50.2	81	44.6	0	0	---	0.00	29.905 
00:35	50.1	50.1	50.1	83	45.1	0	0	---	0.00	29.905 
00:40	49.9	49.9	49.9	84	45.3	0	0	---	0.00	29.905 
00:45	49.8	49.8	49.8	84	45.2	0	0	---	0.00	29.903 
00:50	49.6	49.6	49.6	85	45.3	0	0	---	0.00	29.903 
00:55	49.5	49.5	49.5	86	45.5	0	0	---	0.00	29.903 
01:00	49.2	49.2	49.2	85	44.9	0	0	---	0.00	29.903 
01:05	49.1	49.1	49.1	85	44.8	0	0	---	0.00	29.903 
01:10	48.9	48.9	48.9	86	44.9	0	0	---	0.00	29.903 
01:15	48.8	48.8	48.8	86	44.8	0	0	---	0.00	29.896 
01:20	48.8	48.8	48.8	88	45.4	0	0	---	0.00	29.896 
01:25	48.8	48.8	48.8	88	45.4	0	0	---	0.00	29.896 
01:30	48.6	48.6	48.6	82	43.4	0	2	90	0.00	29.894 
01:35	49.5	49.5	49.5	76	42.3	1	3	90	0.00	29.894 
01:40	50.7	50.7	50.7	71	41.6	1	3	90	0.00	29.894 
01:45	51.7	51.7	51.7	69	41.9	2	4	90	0.00	29.890 
01:50	52.2	52.2	52.2	69	42.3	2	3	90	0.00	29.890 
01:55	52.3	52.3	52.3	69	42.4	1	2	90	0.00	29.890 
02:00	52.3	52.3	52.3	69	42.4	0	2	90	0.00	29.888 
02:05	52.2	52.2	52.2	69	42.3	0	2	90	0.00	29.888 
02:10	52.2	52.2	52.2	68	42.0	0	1	90	0.00	29.888 
02:15	52.3	52.3	52.3	67	41.7	0	1	90	0.00	29.884 
02:20	52.5	52.5	52.5	67	41.9	0	1	90	0.00	29.884 
02:25	52.8	52.8	52.8	67	42.1	1	3	90	0.00	29.884 
02:30	52.9	52.9	52.9	67	42.2	1	2	90	0.00	29.886 
02:35	53.1	53.1	53.1	67	42.4	0	1	90	0.00	29.886 
02:40	53.2	53.2	53.2	67	42.5	0	2	90	0.00	29.886 
02:45	53.3	53.3	53.3	68	43.0	0	2	90	0.00	29.883 
02:50	53.5	53.5	53.5	68	43.2	1	2	90	0.00	29.883 
02:55	53.5	53.5	53.5	69	43.6	1	3	90	0.00	29.883 
03:00	53.3	53.3	53.3	69	43.4	0	1	90	0.00	29.881 
03:05	53.2	53.2	53.2	70	43.7	0	2	90	0.00	29.881 
03:10	52.8	52.8	52.8	71	43.7	1	2	90	0.00	29.881 
03:15	52.5	52.5	52.5	70	43.0	0	2	90	0.00	29.878 
03:20	52.2	52.2	52.2	70	42.7	0	0	---	0.00	29.878 
03:25	51.9	51.9	51.9	71	42.8	0	1	90	0.00	29.878 
03:30	51.6	51.6	51.6	71	42.5	0	1	90	0.00	29.880 
03:35	51.3	51.3	51.3	72	42.6	0	0	---	0.00	29.880 
03:40	51.0	51.0	51.0	71	41.9	0	0	---	0.00	29.880 
03:45	50.7	50.7	50.7	72	42.0	0	0	---	0.00	29.881 
03:50	50.4	50.4	50.4	73	42.1	0	0	---	0.00	29.881 
03:55	49.9	49.9	49.9	74	41.9	0	0	---	0.00	29.881 
04:00	49.6	49.6	49.6	75	42.0	0	0	---	0.00	29.884 
04:05	49.4	49.4	49.4	76	42.2	0	0	---	0.00	29.884 
04:10	49.1	49.1	49.1	77	42.2	0	0	---	0.00	29.884 
04:15	48.8	48.8	48.8	78	42.2	0	0	---	0.00	29.887 
04:20	48.5	48.5	48.5	79	42.3	0	0	---	0.00	29.887 
04:25	48.2	48.2	48.2	80	42.3	0	0	---	0.00	29.887 
04:30	47.9	47.9	47.9	81	42.4	0	0	---	0.00	29.899 
04:35	47.6	47.6	47.6	81	42.1	0	0	---	0.00	29.899 
04:40	47.3	47.3	47.3	81	41.8	0	0	---	0.00	29.899 
04:45	47.1	47.1	47.1	82	41.9	0	0	---	0.00	29.901 
04:50	46.8	46.8	46.8	83	41.9	0	0	---	0.00	29.901 
04:55	46.7	46.7	46.7	83	41.8	0	0	---	0.00	29.901 
05:00	46.4	46.4	46.4	84	41.8	0	0	---	0.00	29.900 
05:05	46.2	46.2	46.2	84	41.6	0	0	---	0.00	29.900 
05:10	46.1	46.1	46.1	84	41.5	0	0	---	0.00	29.900 
05:15	46.0	46.0	46.0	86	42.0	0	0	---	0.00	29.904 
05:20	46.0	46.0	46.0	87	42.4	0	0	---	0.00	29.904 
05:25	46.1	46.1	46.1	87	42.4	0	0	---	0.00	29.904 
05:30	46.1	46.1	46.1	87	42.4	0	0	---	0.00	29.901 
05:35	46.0	46.0	46.0	87	42.4	0	0	---	0.00	29.901 
05:40	46.0	46.0	46.0	87	42.4	0	1	90	0.00	29.901 
05:45	46.2	46.2	46.2	87	42.5	0	2	90	0.00	29.889 
05:50	46.5	46.5	46.5	86	42.5	0	1	90	0.00	29.889 
05:55	46.4	46.4	46.4	86	42.4	0	0	---	0.00	29.889 
06:00	46.2	46.2	46.2	86	42.2	0	0	---	0.00	29.889 
06:05	46.1	46.1	46.1	86	42.1	0	0	---	0.00	29.889 
06:10	46.1	46.1	46.1	87	42.4	0	1	90	0.00	29.889 
06:15	46.1	46.1	46.1	86	42.1	0	1	90	0.00	29.891 
06:20	46.1	46.1	46.1	87	42.4	0	1	90	0.00	29.891 
06:25	46.0	46.0	46.0	87	42.4	0	0	---	0.00	29.891 
06:30	46.0	46.0	46.0	87	42.4	0	1	90	0.00	29.889 
06:35	46.1	46.1	46.1	87	42.4	0	1	90	0.00	29.889 
06:40	46.2	46.2	46.2	87	42.5	0	1	90	0.00	29.889 
06:45	46.5	46.5	46.5	87	42.8	0	1	90	0.00	29.890 
06:50	46.7	46.7	46.7	86	42.7	0	0	---	0.00	29.890 
06:55	46.7	46.7	46.7	86	42.7	0	0	---	0.00	29.890 
07:00	46.7	46.7	46.7	87	43.0	0	1	90	0.00	29.893 
07:05	46.8	46.8	46.8	87	43.1	0	1	90	0.00	29.893 
07:10	47.1	47.1	47.1	86	43.1	0	1	90	0.00	29.893 
07:15	47.6	47.6	47.6	86	43.6	0	1	90	0.00	29.894 
07:20	48.2	48.2	48.2	85	43.9	0	1	90	0.00	29.894 
07:25	48.9	48.9	48.9	83	44.0	0	2	90	0.00	29.894 
07:30	49.5	49.5	49.5	82	44.2	0	1	90	0.00	29.891 
07:35	50.1	50.1	50.1	81	44.5	0	1	90	0.00	29.891 
07:40	50.8	50.8	50.8	81	45.2	1	2	90	0.00	29.891 
07:45	51.3	51.3	51.3	80	45.3	1	2	90	0.00	29.894 
07:50	51.7	51.7	51.7	79	45.4	1	3	90	0.00	29.894 
07:55	52.2	52.2	52.2	79	45.9	1	3	90	0.00	29.894 
08:00	52.8	52.8	52.8	77	45.8	1	2	90	0.00	29.889 
08:05	53.1	53.1	53.1	77	46.1	1	3	90	0.00	29.889 
08:10	53.3	53.3	53.3	77	46.3	1	3	90	0.00	29.889 
08:15	53.6	53.6	53.6	77	46.6	2	4	90	0.00	29.882 
08:20	53.9	53.9	53.9	77	46.9	1	3	90	0.00	29.882 
08:25	54.2	54.2	54.2	77	47.1	2	4	90	0.00	29.882 
08:30	54.5	54.5	54.5	76	47.1	1	4	90	0.00	29.882 
08:35	55.1	55.1	55.1	75	47.3	1	2	90	0.00	29.882 
08:40	55.9	55.9	55.9	73	47.4	1	3	90	0.00	29.882 
08:45	56.5	56.5	56.5	73	47.9	1	3	90	0.00	29.884 
08:50	56.9	56.9	56.9	72	48.0	1	2	112	0.00	29.884 
08:55	57.6	57.6	57.6	72	48.6	0	2	112	0.00	29.884 
09:00	58.3	58.3	58.3	69	48.2	1	3	112	0.00	29.885 
09:05	58.6	58.6	58.6	70	48.8	1	3	112	0.00	29.885 
09:10	58.7	58.7	58.7	70	48.9	1	4	112	0.00	29.885 
09:15	59.3	59.3	59.3	69	49.1	1	3	112	0.00	29.888 
09:20	59.9	59.9	59.9	68	49.3	1	2	112	0.00	29.888 
09:25	60.4	60.4	60.4	68	49.8	1	3	112	0.00	29.888 
09:30	61.2	61.2	61.2	66	49.7	1	3	112	0.00	29.885 
09:35	62.0	62.0	62.0	64	49.7	1	3	112	0.00	29.885 
09:40	62.4	62.4	62.4	64	50.1	1	3	112	0.00	29.885 
09:45	62.9	62.9	62.9	64	50.5	1	4	112	0.00	29.885 
09:50	63.5	63.5	63.5	66	51.9	0	2	270	0.00	29.885 
09:55	64.0	64.0	64.0	63	51.1	1	3	270	0.00	29.885 
10:00	64.7	64.7	64.7	62	51.4	1	4	0	0.00	29.889 
10:05	65.0	65.0	65.0	60	50.8	2	5	90	0.00	29.889 
10:10	65.3	65.3	65.3	62	51.9	2	6	90	0.00	29.889 
10:15	66.0	66.0	66.0	59	51.3	1	3	90	0.00	29.888 
10:20	66.8	66.8	66.8	61	52.9	1	3	90	0.00	29.888 
10:25	67.3	67.3	67.3	58	52.0	2	4	90	0.00	29.888 
10:30	67.8	67.8	67.8	57	52.0	1	4	270	0.00	29.886 
10:35	67.9	67.9	67.9	59	53.0	2	5	112	0.00	29.886 
10:40	68.1	68.1	68.1	59	53.2	2	5	90	0.00	29.886 
10:45	68.1	68.1	68.1	56	51.8	3	5	90	0.00	29.885 
10:50	68.3	68.3	68.3	57	52.5	2	5	90	0.00	29.885 
10:55	68.6	68.6	68.6	55	51.8	2	6	68	0.00	29.885 
11:00	68.8	68.8	68.8	57	52.9	2	6	90	0.00	29.883 
11:05	69.1	69.1	69.1	56	52.7	2	5	248	0.00	29.883 
11:10	69.8	69.8	69.8	53	51.9	2	5	112	0.00	29.883 
11:15	69.8	69.8	69.8	53	51.9	2	4	248	0.00	29.877 
11:20	70.3	70.3	70.3	51	51.3	3	6	90	0.00	29.877 
11:25	69.9	69.9	69.9	50	50.4	2	5	248	0.00	29.877 
11:30	70.3	70.3	70.3	50	50.8	2	6	248	0.00	29.876 
11:35	70.3	70.3	70.3	49	50.2	3	6	248	0.00	29.876 
11:40	69.8	69.8	69.8	51	50.8	3	6	248	0.00	29.876 
11:45	70.1	70.1	70.1	52	51.6	3	5	270	0.00	29.870 
11:50	70.8	70.8	70.8	50	51.2	2	7	45	0.00	29.870 
11:55	70.9	70.9	70.9	46	49.1	4	13	90	0.00	29.870 
12:00	71.5	71.5	71.5	45	49.0	3	6	90	0.00	29.867 
12:05	71.6	71.6	71.6	46	49.7	3	7	112	0.00	29.867 
12:10	71.8	71.8	71.8	42	47.5	4	9	90	0.00	29.867 
12:15	71.5	71.5	71.5	42	47.2	4	9	90	0.00	29.863 
12:20	71.5	71.5	71.5	41	46.5	3	7	90	0.00	29.863 
12:25	71.8	71.8	71.8	43	48.1	3	6	112	0.00	29.863 
12:30	72.1	72.1	72.1	42	47.7	2	9	68	0.00	29.853 
12:35	71.6	71.6	71.6	42	47.3	3	10	45	0.00	29.853 
12:40	72.0	72.0	72.0	43	48.3	3	10	90	0.00	29.853 
12:45	72.1	72.1	72.1	40	46.4	4	10	90	0.00	29.842 
12:50	72.1	72.1	72.1	40	46.4	5	12	90	0.00	29.842 
12:55	72.0	72.0	72.0	41	47.0	2	6	90	0.00	29.842 
13:00	71.6	71.6	71.6	39	45.3	4	6	90	0.00	29.836 
13:05	71.8	71.8	71.8	43	48.1	3	6	90	0.00	29.836 
13:10	72.3	72.3	72.3	41	47.3	3	12	90	0.00	29.836 
13:15	72.3	72.3	72.3	42	47.9	3	7	90	0.00	29.827 
13:20	72.7	72.7	72.7	40	47.0	3	9	90	0.00	29.827 
13:25	72.8	72.8	72.8	40	47.1	4	9	90	0.00	29.827 
13:30	72.8	72.8	72.8	38	45.7	4	10	112	0.00	29.819 
13:35	73.0	73.0	73.0	38	45.9	4	10	90	0.00	29.819 
13:40	73.2	73.2	73.2	44	50.0	3	11	90	0.00	29.819 
13:45	73.2	73.2	73.2	40	47.4	3	7	90	0.00	29.814 
13:50	73.7	73.7	73.7	42	49.2	2	5	90	0.00	29.814 
13:55	73.9	73.9	73.9	37	46.0	3	9	90	0.00	29.814 
14:00	73.5	73.5	73.5	39	47.0	4	11	90	0.00	29.801 
14:05	73.9	73.9	73.9	34	43.7	4	13	90	0.00	29.801 
14:10	73.5	73.5	73.5	35	44.2	4	11	90	0.00	29.801 
14:15	73.7	73.7	73.7	37	45.8	3	9	90	0.00	29.800 
14:20	73.9	73.9	73.9	34	43.7	3	7	90	0.00	29.800 
14:25	74.2	74.2	74.2	38	46.9	3	8	90	0.00	29.800 
14:30	74.0	74.0	74.0	37	46.1	4	7	90	0.00	29.790 
14:35	74.0	74.0	74.0	35	44.6	3	10	90	0.00	29.790 
14:40	74.0	74.0	74.0	35	44.6	4	10	90	0.00	29.790 
14:45	74.0	74.0	74.0	34	43.8	3	6	90	0.00	29.785 
14:50	74.0	74.0	74.0	33	43.1	4	10	90	0.00	29.785 
14:55	74.0	74.0	74.0	34	43.8	3	7	112	0.00	29.785 
15:00	74.6	74.6	74.6	35	45.1	3	6	90	0.00	29.777 
15:05	75.3	75.3	77.3	34	45.0	2	9	112	0.00	29.777 
15:10	75.4	75.4	77.2	32	43.5	2	6	90	0.00	29.777 
15:15	75.4	75.4	77.3	33	44.3	3	7	90	0.00	29.777 
15:20	75.1	75.1	77.2	34	44.8	3	9	90	0.00	29.777 
15:25	75.3	75.3	77.4	35	45.7	3	10	90	0.00	29.777 
15:30	75.1	75.1	77.3	36	46.3	2	5	68	0.00	29.773 
15:35	75.1	75.1	77.2	33	44.0	3	6	90	0.00	29.773 
15:40	75.3	75.3	77.4	36	46.5	2	6	90	0.00	29.773 
15:45	75.3	75.3	77.5	38	47.9	3	7	90	0.00	29.769 
15:50	75.3	75.3	77.4	35	45.7	4	10	112	0.00	29.769 
15:55	75.3	75.3	77.4	35	45.7	3	9	90	0.00	29.769 
16:00	75.4	75.4	77.3	34	45.1	2	7	112	0.00	29.758 
16:05	75.6	75.6	77.2	31	42.8	3	7	90	0.00	29.758 
16:10	75.6	75.6	77.2	31	42.8	3	10	112	0.00	29.758 
16:15	75.8	75.8	77.3	32	43.8	3	7	90	0.00	29.751 
16:20	75.8	75.8	77.3	31	43.0	4	7	90	0.00	29.751 
16:25	75.8	75.8	77.5	34	45.4	3	10	90	0.00	29.751 
16:30	75.6	75.6	77.4	34	45.2	3	7	90	0.00	29.747 
16:35	75.8	75.8	77.3	31	43.0	3	10	90	0.00	29.747 
16:40	75.3	75.3	77.2	32	43.4	3	7	90	0.00	29.747 
16:45	74.9	74.9	74.9	30	41.4	4	7	90	0.00	29.746 
16:50	74.9	74.9	74.9	31	42.2	3	6	90	0.00	29.746 
16:55	75.3	75.3	77.0	29	40.8	3	6	90	0.00	29.746 
17:00	75.4	75.4	77.1	31	42.6	4	9	90	0.00	29.744 
17:05	75.4	75.4	77.2	32	43.5	2	6	90	0.00	29.744 
17:10	75.3	75.3	77.2	32	43.4	3	6	90	0.00	29.744 
17:15	75.1	75.1	77.1	32	43.2	3	7	90	0.00	29.745 
17:20	74.9	74.9	74.9	35	45.4	2	5	112	0.00	29.745 
17:25	74.9	74.9	74.9	33	43.8	3	6	112	0.00	29.745 
17:30	75.3	75.3	77.1	31	42.6	3	7	90	0.00	29.747 
17:35	75.1	75.1	77.1	32	43.2	3	6	112	0.00	29.747 
17:40	74.9	74.9	74.9	32	43.0	2	5	68	0.00	29.747 
17:45	74.7	74.7	74.7	33	43.7	2	4	68	0.00	29.746 
17:50	74.6	74.6	74.6	32	42.8	3	6	90	0.00	29.746 
17:55	74.4	74.4	74.4	32	42.6	3	9	90	0.00	29.746 
18:00	74.2	74.2	74.2	33	43.2	3	7	90	0.00	29.750 
18:05	74.2	74.2	74.2	33	43.2	2	5	90	0.00	29.750 
18:10	74.2	74.2	74.2	31	41.6	3	7	112	0.00	29.750 
18:15	74.2	74.2	74.2	31	41.6	3	6	112	0.00	29.748 
18:20	74.2	74.2	74.2	31	41.6	3	16	90	0.00	29.748 
18:25	74.0	74.0	74.0	31	41.4	2	6	90	0.00	29.748 
18:30	74.0	74.0	74.0	31	41.4	2	6	90	0.00	29.749 
18:35	73.9	73.9	73.9	31	41.3	2	6	90	0.00	29.749 
18:40	73.9	73.9	73.9	31	41.3	2	6	90	0.00	29.749 
18:45	73.9	73.9	73.9	32	42.2	1	4	112	0.00	29.745 
18:50	73.9	73.9	73.9	31	41.3	2	7	112	0.00	29.745 
18:55	73.9	73.9	73.9	33	43.0	2	5	90	0.00	29.745 
19:00	74.0	74.0	74.0	32	42.3	2	4	90	0.00	29.744 
19:05	74.2	74.2	74.2	32	42.4	2	5	112	0.00	29.744 
19:10	74.2	74.2	74.2	32	42.4	2	6	112	0.00	29.744 
19:15	74.0	74.0	74.0	32	42.3	2	7	112	0.00	29.737 
19:20	73.9	73.9	73.9	33	43.0	2	5	90	0.00	29.737 
19:25	73.5	73.5	73.5	33	42.6	2	5	90	0.00	29.737 
19:30	73.5	73.5	73.5	33	42.6	1	4	90	0.00	29.735 
19:35	73.3	73.3	73.3	33	42.4	1	4	135	0.00	29.735 
19:40	73.2	73.2	73.2	33	42.4	2	3	90	0.00	29.735 
19:45	73.0	73.0	73.0	33	42.2	2	6	90	0.00	29.733 
19:50	73.0	73.0	73.0	34	43.0	2	6	112	0.00	29.733 
19:55	72.8	72.8	72.8	34	42.8	1	4	112	0.00	29.733 
20:00	72.8	72.8	72.8	35	43.5	1	3	112	0.00	29.735 
20:05	72.7	72.7	72.7	35	43.5	2	5	112	0.00	29.735 
20:10	72.7	72.7	72.7	35	43.5	1	3	112	0.00	29.735 
20:15	72.5	72.5	72.5	35	43.3	1	4	112	0.00	29.729 
20:20	72.5	72.5	72.5	36	44.0	1	3	112	0.00	29.729 
20:25	72.3	72.3	72.3	36	43.8	1	3	135	0.00	29.729 
20:30	72.1	72.1	72.1	37	44.4	0	2	135	0.00	29.730 
20:35	72.0	72.0	72.0	37	44.3	1	3	135	0.00	29.730 
20:40	71.8	71.8	71.8	39	45.5	0	2	135	0.00	29.730 
20:45	71.6	71.6	71.6	39	45.3	0	1	135	0.00	29.729 
20:50	71.3	71.3	71.3	40	45.7	0	1	135	0.00	29.729 
20:55	71.1	71.1	71.1	41	46.2	0	1	135	0.00	29.729 
21:00	70.8	70.8	70.8	41	45.9	0	1	135	0.00	29.723 
21:05	70.4	70.4	70.4	41	45.6	0	1	135	0.00	29.723 
21:10	70.3	70.3	70.3	41	45.5	0	2	135	0.00	29.723 
21:15	70.1	70.1	70.1	41	45.3	1	4	135	0.00	29.716 
21:20	70.1	70.1	70.1	41	45.3	0	2	112	0.00	29.716 
21:25	69.9	69.9	69.9	41	45.1	0	2	135	0.00	29.716 
21:30	69.8	69.8	69.8	41	45.0	1	2	135	0.00	29.720 
21:35	69.8	69.8	69.8	42	45.7	1	3	90	0.00	29.720 
21:40	69.8	69.8	69.8	42	45.7	1	2	90	0.00	29.720 
21:45	69.8	69.8	69.8	43	46.3	1	2	90	0.00	29.730 
21:50	69.8	69.8	69.8	43	46.3	1	2	90	0.00	29.730 
21:55	69.8	69.8	69.8	43	46.3	1	2	90	0.00	29.730 
22:00	69.8	69.8	69.8	43	46.3	2	4	90	0.00	29.732 
22:05	69.9	69.9	69.9	43	46.4	1	2	90	0.00	29.732 
22:10	69.8	69.8	69.8	44	46.9	1	2	90	0.00	29.732 
22:15	69.8	69.8	69.8	45	47.5	0	2	90	0.00	29.731 
22:20	69.6	69.6	69.6	46	47.9	0	1	90	0.00	29.731 
22:25	69.3	69.3	69.3	48	48.8	0	0	---	0.00	29.731 
22:30	69.1	69.1	69.1	48	48.6	0	1	90	0.00	29.737 
22:35	68.9	68.9	68.9	48	48.4	0	1	90	0.00	29.737 
22:40	68.8	68.8	68.8	50	49.4	0	0	---	0.00	29.737 
22:45	68.6	68.6	68.6	51	49.7	0	0	---	0.00	29.744 
22:50	68.4	68.4	68.4	50	49.0	0	0	---	0.00	29.744 
22:55	68.3	68.3	68.3	53	50.5	0	0	---	0.00	29.744 
23:00	68.1	68.1	68.1	52	49.8	0	0	---	0.00	29.742 
23:05	67.9	67.9	67.9	53	50.1	0	1	90	0.00	29.742 
23:10	67.6	67.6	67.6	53	49.9	0	1	90	0.00	29.742 
23:15	67.4	67.4	67.4	54	50.2	0	1	90	0.00	29.738 
23:20	67.1	67.1	67.1	55	50.4	0	0	---	0.00	29.738 
23:25	66.9	66.9	66.9	57	51.2	0	0	---	0.00	29.738 
23:30	66.6	66.6	66.6	58	51.4	0	0	---	0.00	29.735 
23:35	66.3	66.3	66.3	58	51.1	0	0	---	0.00	29.735 
23:40	65.8	65.8	65.8	59	51.1	0	0	---	0.00	29.735 
23:45	65.5	65.5	65.5	59	50.8	0	0	---	0.00	29.734 
23:50	65.0	65.0	65.0	61	51.2	0	0	---	0.00	29.734 
23:55	64.5	64.5	64.5	62	51.2	0	0	---	0.00	29.734 

CoCoRaHS
IN-AL-39
A2 Web Hosting
Creative Commons License
GoDaddy
Look for:

loaded 2017-10-18 07:22:30 • last modified 2010-11-18 10:43:29
Privacy PolicyDisclaimer
• wx.awcolley.com is powered by PmWiki v.2002016 •
• all content (unless otherwise noted) © 2017 A W Colley